Time;durP1;ratioP1;P1;durP2;ratioP2;P2;SDS_P1;SDS_P2;PMS_P1;PMS_P2;Temp;Humidity;BMP_temperature;BMP_pressure;BME280_temperature;BME280_humidity;BME280_pressure;Samples;Min_cycle;Max_cycle;Signal;HPM_P1;HPM_P2
2022/08/06 00:00:15;;;;;;;4.80;4.40;;;;;;;20.46;100.00;96982.91;5054593;28;20239;-54
2022/08/06 00:02:43;;;;;;;5.43;4.93;;;;;;;20.42;100.00;96978.94;5054536;28;20237;-53
2022/08/06 00:05:11;;;;;;;5.05;4.75;;;;;;;20.45;100.00;96982.06;5040563;28;20330;-55
2022/08/06 00:07:38;;;;;;;4.93;4.53;;;;;;;20.46;100.00;96981.06;5054521;28;20203;-55
2022/08/06 00:10:05;;;;;;;5.13;4.63;;;;;;;20.47;100.00;96985.41;5053969;28;20265;-55
2022/08/06 00:12:34;;;;;;;4.82;4.45;;;;;;;20.43;100.00;96970.72;5053956;28;20272;-54
2022/08/06 00:15:00;;;;;;;5.35;4.85;;;;;;;20.42;100.00;96969.03;5053684;28;20239;-55
2022/08/06 00:17:27;;;;;;;4.88;4.57;;;;;;;20.41;100.00;96974.59;5051659;28;20286;-54
2022/08/06 00:19:54;;;;;;;5.28;4.80;;;;;;;20.39;100.00;96976.66;5054426;28;20302;-55
2022/08/06 00:22:22;;;;;;;5.43;4.72;;;;;;;20.38;100.00;96970.47;5054527;28;20287;-55
2022/08/06 00:24:48;;;;;;;5.88;5.18;;;;;;;20.39;100.00;96976.66;5054196;28;20233;-54
2022/08/06 00:27:16;;;;;;;5.53;4.75;;;;;;;20.36;100.00;96969.84;5054100;28;20666;-55
2022/08/06 00:29:43;;;;;;;8.40;5.28;;;;;;;20.33;100.00;96968.34;5054155;28;20572;-54
2022/08/06 00:32:09;;;;;;;5.25;4.85;;;;;;;20.31;100.00;96964.22;5054282;28;20298;-55
2022/08/06 00:34:36;;;;;;;4.97;4.57;;;;;;;20.27;100.00;96961.09;5054230;28;20576;-54
2022/08/06 00:37:03;;;;;;;5.47;4.53;;;;;;;20.22;100.00;96962.69;5054458;28;20243;-55
2022/08/06 00:39:31;;;;;;;5.68;4.57;;;;;;;20.22;100.00;96965.38;5054264;28;20264;-55
2022/08/06 00:41:58;;;;;;;5.28;4.78;;;;;;;20.16;100.00;96958.91;5054105;28;20648;-54
2022/08/06 00:44:25;;;;;;;4.90;4.22;;;;;;;20.14;100.00;96962.81;5054083;28;20235;-54
2022/08/06 00:46:53;;;;;;;6.35;4.90;;;;;;;20.18;100.00;96969.47;5054313;28;20402;-54
2022/08/06 00:49:20;;;;;;;4.78;4.45;;;;;;;20.20;100.00;96970.09;5053963;28;20306;-54
2022/08/06 00:51:46;;;;;;;4.70;4.35;;;;;;;20.12;100.00;96970.25;5054351;28;20203;-54
2022/08/06 00:54:13;;;;;;;4.80;4.50;;;;;;;20.09;100.00;96967.94;5054233;28;20520;-54
2022/08/06 00:56:41;;;;;;;5.35;4.85;;;;;;;19.99;100.00;96978.16;5053828;28;20257;-54
2022/08/06 00:59:08;;;;;;;4.40;4.10;;;;;;;20.03;100.00;96982.13;5053985;28;20234;-54
2022/08/06 01:01:35;;;;;;;4.68;4.35;;;;;;;20.04;100.00;96978.44;5053400;28;20243;-54
2022/08/06 01:04:02;;;;;;;4.75;4.45;;;;;;;20.02;100.00;96977.78;5054296;28;20269;-54
2022/08/06 01:06:28;;;;;;;5.07;4.60;;;;;;;20.00;100.00;96985.22;5053747;28;20323;-55
2022/08/06 01:08:55;;;;;;;4.88;4.45;;;;;;;19.97;100.00;96980.22;5054506;28;20307;-54
2022/08/06 01:11:22;;;;;;;4.55;4.25;;;;;;;20.04;100.00;96978.44;5054629;28;20238;-54
2022/08/06 01:13:50;;;;;;;4.38;4.07;;;;;;;20.00;100.00;96974.47;5054497;28;20231;-54
2022/08/06 01:16:24;;;;;;;4.43;4.10;;;;;;;19.97;100.00;96967.66;5057968;28;20231;-55
2022/08/06 01:18:56;;;;;;;4.90;4.40;;;;;;;20.00;100.00;96978.00;5058504;28;20240;-54
2022/08/06 01:21:44;;;;;;;4.55;4.10;;;;;;;20.07;100.00;96978.03;5058563;28;20213;-55
2022/08/06 01:24:30;;;;;;;4.57;4.18;;;;;;;20.04;100.00;96989.19;5057423;28;20647;-55
2022/08/06 01:27:15;;;;;;;4.65;4.25;;;;;;;20.02;100.00;96986.66;5057737;28;20203;-55
2022/08/06 01:29:44;;;;;;;4.82;4.53;;;;;;;20.00;100.00;96971.78;5057129;28;20695;-54
2022/08/06 01:32:15;;;;;;;5.50;5.03;;;;;;;19.98;100.00;96971.16;5057579;28;20211;-55
2022/08/06 01:34:45;;;;;;;6.75;5.22;;;;;;;20.00;100.00;96964.56;5057251;28;20209;-55
2022/08/06 01:37:28;;;;;;;5.45;4.88;;;;;;;20.03;100.00;96974.91;5057625;28;20298;-55
2022/08/06 01:39:58;;;;;;;5.10;4.70;;;;;;;19.98;100.00;96973.84;5057637;28;20348;-55
2022/08/06 01:42:26;;;;;;;6.72;5.20;;;;;;;20.04;100.00;96979.28;5057723;28;20260;-54
2022/08/06 01:44:54;;;;;;;6.57;5.20;;;;;;;20.01;100.00;96978.81;5068939;28;20262;-54
2022/08/06 01:47:22;;;;;;;5.53;5.05;;;;;;;20.03;100.00;96974.09;5076058;28;20250;-54
2022/08/06 01:49:51;;;;;;;5.60;5.20;;;;;;;20.07;100.00;96978.03;5065781;28;20270;-55
2022/08/06 01:52:18;;;;;;;5.60;4.80;;;;;;;20.02;100.00;96970.56;5061640;28;20214;-54
2022/08/06 01:54:47;;;;;;;5.65;5.15;;;;;;;20.03;100.00;96976.75;5060376;28;20286;-56
2022/08/06 01:57:14;;;;;;;5.97;5.50;;;;;;;20.01;100.00;96976.13;5058639;28;20249;-55
2022/08/06 01:59:45;;;;;;;5.97;5.57;;;;;;;20.01;100.00;96978.81;5057932;28;20241;-55
2022/08/06 02:02:16;;;;;;;6.43;5.90;;;;;;;20.01;100.00;96987.72;5053068;28;20235;-55
2022/08/06 02:04:44;;;;;;;5.93;5.53;;;;;;;20.04;100.00;96975.75;5051115;28;20207;-55
2022/08/06 02:07:11;;;;;;;6.22;5.70;;;;;;;20.05;100.00;96983.59;5057931;28;20214;-55
2022/08/06 02:09:40;;;;;;;6.63;5.57;;;;;;;20.01;100.00;96984.19;5058958;28;20298;-55
2022/08/06 02:12:09;;;;;;;5.20;4.90;;;;;;;20.08;100.00;96985.09;5046003;28;20301;-55
2022/08/06 02:14:38;;;;;;;6.50;5.75;;;;;;;20.07;100.00;96994.16;5059538;28;20693;-54
2022/08/06 02:17:06;;;;;;;6.28;5.63;;;;;;;20.02;100.00;96996.56;5061199;28;20272;-54
2022/08/06 02:19:33;;;;;;;6.32;5.82;;;;;;;20.04;100.00;96999.91;5065382;28;20226;-55
2022/08/06 02:22:03;;;;;;;7.05;6.10;;;;;;;20.00;100.00;96994.09;5073737;28;20199;-55
2022/08/06 02:24:30;;;;;;;6.40;5.90;;;;;;;20.02;100.00;96996.56;5077598;28;20203;-55
2022/08/06 02:27:00;;;;;;;6.93;6.20;;;;;;;20.05;100.00;96993.53;5075983;28;20211;-55
2022/08/06 02:29:27;;;;;;;6.53;6.03;;;;;;;20.07;100.00;96994.16;5077150;28;20301;-56
2022/08/06 02:31:54;;;;;;;7.07;6.40;;;;;;;20.08;100.00;96985.91;5076977;28;20206;-55
2022/08/06 02:34:23;;;;;;;6.65;6.20;;;;;;;20.10;100.00;96980.34;5075874;28;20211;-55
2022/08/06 02:36:55;;;;;;;6.78;6.38;;;;;;;20.07;100.00;96983.41;5066101;28;20220;-55
2022/08/06 02:39:25;;;;;;;7.13;6.63;;;;;;;20.05;100.00;96980.91;5057907;28;20195;-55
2022/08/06 02:42:00;;;;;;;8.02;6.90;;;;;;;20.06;100.00;96987.13;5070446;28;20198;-55
2022/08/06 02:44:36;;;;;;;7.47;6.93;;;;;;;20.08;100.00;96983.22;5077565;28;20198;-55
2022/08/06 02:47:06;;;;;;;8.55;7.32;;;;;;;20.11;100.00;96988.22;5048542;28;20302;-55
2022/08/06 02:49:37;;;;;;;7.45;6.85;;;;;;;20.09;100.00;96987.56;5056096;28;20289;-55
2022/08/06 02:52:07;;;;;;;7.43;6.82;;;;;;;20.13;100.00;96983.47;5056276;28;20243;-55
2022/08/06 02:54:38;;;;;;;7.65;6.60;;;;;;;20.14;100.00;96985.13;5056266;28;20579;-55
2022/08/06 02:57:08;;;;;;;7.05;6.45;;;;;;;20.14;100.00;96985.13;5055850;28;20205;-55
2022/08/06 02:59:40;;;;;;;7.07;6.47;;;;;;;20.17;100.00;96978.53;5055910;28;20250;-55
2022/08/06 03:02:09;;;;;;;7.47;6.72;;;;;;;20.22;100.00;96987.69;5055694;28;20279;-56
2022/08/06 03:04:38;;;;;;;7.72;6.97;;;;;;;20.16;100.00;96983.06;5055895;28;20287;-55
2022/08/06 03:07:08;;;;;;;8.18;7.35;;;;;;;20.20;100.00;96986.19;5055939;28;20262;-55
2022/08/06 03:09:35;;;;;;;7.93;7.32;;;;;;;20.21;100.00;96985.19;5056062;28;20211;-55
2022/08/06 03:12:03;;;;;;;8.48;7.45;;;;;;;20.31;100.00;96983.84;5049112;28;20331;-55
2022/08/06 03:14:30;;;;;;;8.07;7.38;;;;;;;20.33;100.00;96987.16;5049095;28;20635;-54
2022/08/06 03:16:58;;;;;;;8.00;7.25;;;;;;;20.29;100.00;96993.13;5048516;28;20300;-55
2022/08/06 03:19:25;;;;;;;8.90;8.20;;;;;;;20.25;100.00;96986.47;5049857;28;20293;-54
2022/08/06 03:21:54;;;;;;;9.50;8.40;;;;;;;20.15;100.00;96992.19;5055313;28;20568;-54
2022/08/06 03:24:22;;;;;;;8.25;7.65;;;;;;;20.17;100.00;96990.09;5055663;28;20210;-55
2022/08/06 03:26:50;;;;;;;9.88;9.00;;;;;;;20.06;100.00;96993.31;5055537;28;20554;-54
2022/08/06 03:29:17;;;;;;;11.23;10.13;;;;;;;20.00;100.00;96987.91;5055516;28;20238;-55
2022/08/06 03:31:44;;;;;;;11.35;10.35;;;;;;;19.90;100.00;96982.03;5055627;28;20294;-54
2022/08/06 03:34:11;;;;;;;10.98;9.93;;;;;;;19.83;100.00;96985.50;5055089;28;20257;-54
2022/08/06 03:36:38;;;;;;;11.93;10.73;;;;;;;19.84;100.00;96995.19;5055315;28;20257;-55
2022/08/06 03:39:07;;;;;;;11.60;10.43;;;;;;;19.77;100.00;96996.13;5055061;28;20237;-56
2022/08/06 03:41:36;;;;;;;11.75;10.65;;;;;;;19.74;100.00;96989.31;5055699;28;20302;-54
2022/08/06 03:44:03;;;;;;;11.20;10.20;;;;;;;19.72;100.00;96991.38;5055923;28;20295;-55
2022/08/06 03:46:33;;;;;;;12.55;11.32;;;;;;;19.70;100.00;96995.25;5056109;28;20237;-55
2022/08/06 03:49:03;;;;;;;12.68;11.57;;;;;;;19.69;100.00;97005.16;5054771;28;20314;-54
2022/08/06 03:51:31;;;;;;;13.95;12.55;;;;;;;19.64;100.00;97004.91;5055533;28;20294;-54
2022/08/06 03:53:59;;;;;;;12.57;11.25;;;;;;;19.63;100.00;97007.75;5055155;28;20603;-55
2022/08/06 03:56:28;;;;;;;12.35;11.18;;;;;;;19.57;100.00;97011.22;5054970;28;20199;-56
2022/08/06 03:58:59;;;;;;;13.43;12.23;;;;;;;19.51;100.00;97018.19;5054085;28;20293;-54
2022/08/06 04:01:27;;;;;;;12.65;11.55;;;;;;;19.57;100.00;97020.09;5054933;28;20271;-54
2022/08/06 04:03:55;;;;;;;12.38;11.18;;;;;;;19.53;100.00;97013.44;5054472;28;20250;-54
2022/08/06 04:06:24;;;;;;;12.98;11.75;;;;;;;19.50;100.00;97019.19;5054208;28;20231;-53
2022/08/06 04:08:51;;;;;;;12.45;11.25;;;;;;;19.50;100.00;97016.50;5041834;28;20221;-54
2022/08/06 04:11:18;;;;;;;12.75;11.65;;;;;;;19.48;100.00;97020.41;5054718;28;20294;-54
2022/08/06 04:13:46;;;;;;;12.90;11.75;;;;;;;19.55;100.00;97027.53;5054610;28;20302;-54
2022/08/06 04:16:14;;;;;;;11.50;10.45;;;;;;;19.51;100.00;97034.28;5054405;28;20294;-54
2022/08/06 04:18:41;;;;;;;12.13;10.80;;;;;;;19.42;100.00;97031.88;5054658;28;20286;-55
2022/08/06 04:21:11;;;;;;;11.52;10.43;;;;;;;19.39;100.00;97036.56;5054057;28;20239;-54
2022/08/06 04:23:38;;;;;;;11.55;10.45;;;;;;;19.36;100.00;97031.59;5054708;28;20290;-55
2022/08/06 04:26:08;;;;;;;11.32;10.15;;;;;;;19.32;100.00;97050.91;5053862;28;20258;-54
2022/08/06 04:28:36;;;;;;;11.38;10.05;;;;;;;19.37;100.00;97046.69;5054641;28;20591;-55
2022/08/06 04:31:05;;;;;;;10.90;9.75;;;;;;;19.36;100.00;97046.84;5054427;28;20310;-54
2022/08/06 04:33:34;;;;;;;10.05;9.18;;;;;;;19.29;100.00;97044.09;5053967;28;20619;-54
2022/08/06 04:36:04;;;;;;;9.60;8.80;;;;;;;19.36;100.00;97049.53;5049428;28;20235;-54
2022/08/06 04:38:32;;;;;;;8.43;7.57;;;;;;;19.28;100.00;97057.69;5048076;28;20203;-54
2022/08/06 04:40:58;;;;;;;10.20;9.20;;;;;;;19.29;100.00;97070.91;5057039;28;20298;-54
2022/08/06 04:43:25;;;;;;;9.35;8.45;;;;;;;19.25;100.00;97061.56;5056462;28;20227;-53
2022/08/06 04:45:52;;;;;;;9.88;8.88;;;;;;;19.24;100.00;97064.41;5054197;28;20222;-54
2022/08/06 04:48:20;;;;;;;9.38;8.48;;;;;;;19.27;100.00;97066.75;5053985;28;20338;-54
2022/08/06 04:50:47;;;;;;;9.70;8.70;;;;;;;19.18;100.00;97070.53;5055548;28;20211;-54
2022/08/06 04:53:15;;;;;;;8.70;7.90;;;;;;;19.22;100.00;97071.84;5058226;28;20602;-54
2022/08/06 04:55:43;;;;;;;9.13;8.32;;;;;;;19.22;100.00;97083.41;5052109;28;20238;-54
2022/08/06 04:58:12;;;;;;;8.25;7.55;;;;;;;19.29;100.00;97080.81;5058438;28;20257;-54
2022/08/06 05:00:40;;;;;;;8.90;8.20;;;;;;;19.24;100.00;97081.34;5058309;28;20203;-54
2022/08/06 05:03:07;;;;;;;9.27;8.50;;;;;;;19.25;100.00;97085.69;5057922;28;20670;-54
2022/08/06 05:05:39;;;;;;;8.32;7.53;;;;;;;19.26;100.00;97094.59;5057963;28;20250;-54
2022/08/06 05:08:07;;;;;;;9.05;7.97;;;;;;;19.13;100.00;97102.47;5058287;28;20290;-54
2022/08/06 05:10:38;;;;;;;8.13;7.43;;;;;;;19.19;100.00;97096.34;5058343;28;20595;-54
2022/08/06 05:13:06;;;;;;;7.93;7.22;;;;;;;19.19;100.00;97097.19;5057983;28;20235;-54
2022/08/06 05:15:35;;;;;;;8.15;7.35;;;;;;;19.10;100.00;97106.31;5057993;28;20269;-54
2022/08/06 05:18:05;;;;;;;7.93;7.25;;;;;;;19.11;100.00;97112.50;5058205;28;20306;-54
2022/08/06 05:20:36;;;;;;;7.85;7.00;;;;;;;19.01;100.00;97115.47;5057734;28;20690;-54
2022/08/06 05:23:06;;;;;;;7.90;7.20;;;;;;;19.02;100.00;97117.16;5058013;28;20594;-54
2022/08/06 05:25:33;;;;;;;8.32;7.25;;;;;;;18.98;100.00;97123.91;5057749;28;20279;-54
2022/08/06 05:28:01;;;;;;;7.30;6.38;;;;;;;18.95;100.00;97126.09;5057972;28;20206;-54
2022/08/06 05:30:27;;;;;;;7.47;6.72;;;;;;;19.01;100.00;97125.38;5057922;28;20235;-54
2022/08/06 05:32:58;;;;;;;6.85;6.20;;;;;;;18.96;100.00;97122.38;5044635;28;20250;-54
2022/08/06 05:35:25;;;;;;;6.60;5.75;;;;;;;18.92;100.00;97116.56;5057701;28;20203;-54
2022/08/06 05:37:53;;;;;;;6.40;5.80;;;;;;;18.95;100.00;97118.06;5044429;28;20645;-54
2022/08/06 05:40:19;;;;;;;7.25;6.65;;;;;;;18.92;100.00;97116.56;5057088;28;20615;-53
2022/08/06 05:42:46;;;;;;;6.68;5.88;;;;;;;18.91;100.00;97125.66;5057571;28;20238;-54
2022/08/06 05:45:13;;;;;;;6.35;5.75;;;;;;;18.95;100.00;97121.59;5058596;28;20345;-54
2022/08/06 05:47:42;;;;;;;6.88;6.18;;;;;;;18.78;100.00;97118.22;5077927;28;20223;-54
2022/08/06 05:50:11;;;;;;;6.30;5.70;;;;;;;18.84;100.00;97130.91;5076706;28;20244;-54
2022/08/06 05:52:51;;;;;;;6.60;6.00;;;;;;;18.86;100.00;97128.88;5063594;28;20218;-54
2022/08/06 05:55:23;;;;;;;6.55;5.95;;;;;;;18.80;100.00;97128.75;5057293;28;20675;-53
2022/08/06 05:57:52;;;;;;;6.35;5.85;;;;;;;18.82;100.00;97126.72;5057568;28;20226;-54
2022/08/06 06:00:20;;;;;;;7.13;6.15;;;;;;;18.80;100.00;97134.97;5056895;28;20207;-54
2022/08/06 06:02:48;;;;;;;5.63;5.10;;;;;;;18.76;100.00;97138.19;5057001;28;20294;-53
2022/08/06 06:05:15;;;;;;;6.38;5.30;;;;;;;18.76;100.00;97139.00;5056562;28;20290;-54
2022/08/06 06:07:43;;;;;;;5.38;4.50;;;;;;;18.72;100.00;97142.22;5056606;28;20219;-54
2022/08/06 06:10:12;;;;;;;5.88;4.45;;;;;;;18.64;100.00;97142.28;5056829;28;20203;-54
2022/08/06 06:12:40;;;;;;;4.63;4.22;;;;;;;18.64;100.00;97143.13;5056823;28;20204;-54
2022/08/06 06:15:09;;;;;;;6.30;4.57;;;;;;;18.72;100.00;97148.44;5047997;28;20211;-54
2022/08/06 06:17:53;;;;;;;4.80;4.28;;;;;;;18.69;100.00;97158.66;5057014;28;20558;-54
2022/08/06 06:20:23;;;;;;;5.32;4.82;;;;;;;18.68;100.00;97146.28;5055803;28;20290;-53
2022/08/06 06:22:54;;;;;;;4.07;3.78;;;;;;;18.70;100.00;97160.34;5056793;28;20226;-53
2022/08/06 06:25:25;;;;;;;4.85;3.88;;;;;;;18.62;100.00;97147.00;5056505;28;20254;-54
2022/08/06 06:27:57;;;;;;;4.57;4.18;;;;;;;18.60;100.00;97157.09;5056714;28;20222;-53
2022/08/06 06:30:28;;;;;;;6.07;4.53;;;;;;;18.58;100.00;97162.63;5056792;28;20207;-54
2022/08/06 06:32:58;;;;;;;5.15;3.72;;;;;;;18.57;100.00;97171.66;5055927;28;20620;-54
2022/08/06 06:35:32;;;;;;;3.97;3.63;;;;;;;18.49;96.32;97169.03;5056558;28;20227;-54
2022/08/06 06:38:13;;;;;;;3.80;3.40;;;;;;;18.52;97.14;97173.22;5056693;28;20286;-54
2022/08/06 06:40:50;;;;;;;4.95;3.65;;;;;;;18.53;100.00;97172.22;5056304;28;20257;-53
2022/08/06 06:43:23;;;;;;;3.80;3.50;;;;;;;18.52;100.00;97167.88;5056501;28;20592;-54
2022/08/06 06:45:56;;;;;;;4.45;3.70;;;;;;;18.44;99.36;97171.41;5049843;28;20293;-54
2022/08/06 06:48:26;;;;;;;4.82;3.95;;;;;;;18.48;100.00;97172.72;5055969;28;20329;-53
2022/08/06 06:50:55;;;;;;;4.47;3.78;;;;;;;18.40;98.36;97173.59;5056304;28;20238;-54
2022/08/06 06:53:24;;;;;;;4.10;3.80;;;;;;;18.41;98.31;97177.13;5055819;28;20242;-54
2022/08/06 06:55:53;;;;;;;3.78;3.47;;;;;;;18.46;98.12;97172.03;5056283;28;20235;-55
2022/08/06 06:58:26;;;;;;;6.28;3.55;;;;;;;18.41;96.83;97171.75;5056197;28;20203;-53
2022/08/06 07:00:54;;;;;;;4.18;3.80;;;;;;;18.43;96.42;97172.41;5055616;28;20226;-54
2022/08/06 07:03:21;;;;;;;6.85;3.67;;;;;;;18.46;98.09;97179.28;5055785;28;20243;-53
2022/08/06 07:05:50;;;;;;;4.97;3.50;;;;;;;18.54;96.62;97177.38;5055920;28;20298;-53
2022/08/06 07:08:20;;;;;;;4.05;3.65;;;;;;;18.45;96.81;97180.28;5055669;28;20231;-54
2022/08/06 07:10:47;;;;;;;5.60;3.90;;;;;;;18.52;100.00;97182.09;5056105;28;20294;-54
2022/08/06 07:13:15;;;;;;;3.78;3.47;;;;;;;18.55;95.85;97178.22;5053943;28;20624;-54
2022/08/06 07:15:44;;;;;;;4.00;3.60;;;;;;;18.51;98.72;97185.78;5047050;28;20344;-54
2022/08/06 07:18:11;;;;;;;4.15;3.67;;;;;;;18.53;97.77;97193.66;5055823;28;20628;-54
2022/08/06 07:20:38;;;;;;;3.90;3.28;;;;;;;18.52;97.59;97190.13;5056002;28;20211;-54
2022/08/06 07:23:07;;;;;;;6.88;3.58;;;;;;;18.50;99.45;97186.75;5055492;28;20231;-53
2022/08/06 07:25:35;;;;;;;3.80;3.42;;;;;;;18.49;96.61;97194.97;5055297;28;20643;-53
2022/08/06 07:28:02;;;;;;;3.90;3.50;;;;;;;18.45;95.09;97194.50;5055505;28;20551;-54
2022/08/06 07:30:29;;;;;;;3.42;3.20;;;;;;;18.39;97.18;97189.84;5055414;28;20294;-53
2022/08/06 07:32:57;;;;;;;3.78;3.47;;;;;;;18.28;95.52;97193.75;5056063;28;20207;-53
2022/08/06 07:35:25;;;;;;;6.22;3.95;;;;;;;18.31;97.70;97197.94;5055291;28;20581;-54
2022/08/06 07:37:55;;;;;;;4.43;4.03;;;;;;;18.36;99.11;97199.06;5042221;28;20418;-53
2022/08/06 07:40:25;;;;;;;6.43;3.58;;;;;;;18.42;97.93;97205.56;5055790;28;20215;-54
2022/08/06 07:42:55;;;;;;;3.80;3.38;;;;;;;18.40;97.75;97211.09;5057039;28;20647;-54
2022/08/06 07:45:23;;;;;;;3.50;3.22;;;;;;;18.40;96.69;97215.63;5050388;28;20199;-53
2022/08/06 07:47:50;;;;;;;3.58;3.05;;;;;;;18.41;93.99;97203.91;5061700;28;20254;-54
2022/08/06 07:50:19;;;;;;;4.78;3.70;;;;;;;18.37;94.18;97205.25;5051983;28;20211;-54
2022/08/06 07:52:46;;;;;;;4.82;3.17;;;;;;;18.31;95.31;97214.03;5070634;28;20226;-52
2022/08/06 07:55:13;;;;;;;5.40;3.65;;;;;;;18.35;95.30;97215.34;5055090;28;20254;-53
2022/08/06 07:57:41;;;;;;;4.07;3.67;;;;;;;18.39;94.42;97208.59;5055754;28;20274;-53
2022/08/06 08:00:09;;;;;;;4.68;3.30;;;;;;;18.38;97.14;97223.00;5055520;28;20269;-54
2022/08/06 08:02:36;;;;;;;7.35;3.75;;;;;;;18.32;96.00;97223.69;5055358;28;20544;-54
2022/08/06 08:07:48;;;;;;;5.03;3.33;;;;;;;18.37;98.08;97224.00;5055053;28;20222;-53
2022/08/06 08:10:16;;;;;;;7.22;3.90;;;;;;;18.40;95.15;97226.31;5054781;28;20608;-53
2022/08/06 08:12:43;;;;;;;8.95;3.53;;;;;;;18.36;96.75;97222.34;5054904;28;20215;-53
2022/08/06 08:15:10;;;;;;;7.97;3.53;;;;;;;18.35;95.71;97218.00;5054534;28;20234;-53
2022/08/06 08:17:37;;;;;;;7.15;3.40;;;;;;;18.35;98.80;97228.72;5054906;28;20227;-54
2022/08/06 08:20:06;;;;;;;5.43;3.80;;;;;;;18.34;94.42;97229.72;5054502;28;20264;-54
2022/08/06 08:22:32;;;;;;;6.47;3.65;;;;;;;18.33;94.34;97214.66;5054517;28;20265;-53
2022/08/06 08:25:01;;;;;;;3.83;3.50;;;;;;;18.25;94.95;97231.59;5054284;28;20215;-52
2022/08/06 08:27:27;;;;;;;5.72;3.67;;;;;;;18.15;96.05;97232.84;5054446;28;20675;-54
2022/08/06 08:29:54;;;;;;;8.32;6.63;;;;;;;18.22;98.85;97237.31;5054780;28;20239;-53
2022/08/06 08:32:21;;;;;;;4.53;3.50;;;;;;;18.22;98.26;97237.31;5054787;28;20260;-53
2022/08/06 08:34:48;;;;;;;5.50;3.53;;;;;;;18.15;98.07;97239.03;5054867;28;20246;-54
2022/08/06 08:37:15;;;;;;;6.20;3.75;;;;;;;18.18;99.46;97236.00;5054571;28;20562;-54
2022/08/06 08:39:41;;;;;;;36.13;6.85;;;;;;;18.17;98.95;97238.88;5054315;28;20690;-53
2022/08/06 08:42:12;;;;;;;6.60;3.90;;;;;;;18.20;98.04;97244.69;5054437;28;20246;-53
2022/08/06 08:44:39;;;;;;;6.15;3.28;;;;;;;18.28;96.64;97249.19;5054472;28;20238;-55
2022/08/06 08:47:06;;;;;;;4.28;3.53;;;;;;;18.15;98.48;97252.41;5054161;28;20218;-53
2022/08/06 08:49:42;;;;;;;10.60;4.57;;;;;;;18.21;97.01;97258.94;5053983;28;20300;-54
2022/08/06 08:52:14;;;;;;;19.33;5.20;;;;;;;18.16;98.91;97255.94;5054268;28;20290;-54
2022/08/06 08:54:43;;;;;;;8.10;4.35;;;;;;;18.12;98.93;97250.09;5054125;28;20238;-53
2022/08/06 08:57:11;;;;;;;13.85;4.55;;;;;;;18.12;97.43;97252.78;5054159;28;20207;-53
2022/08/06 08:59:41;;;;;;;26.63;6.53;;;;;;;18.05;98.39;97257.16;5054356;28;20296;-53
2022/08/06 09:02:08;;;;;;;17.35;5.70;;;;;;;18.07;98.48;97251.59;5053958;28;20234;-54
2022/08/06 09:04:35;;;;;;;13.77;5.43;;;;;;;18.09;99.37;97263.84;5054373;28;20254;-53
2022/08/06 09:07:03;;;;;;;16.33;8.50;;;;;;;18.14;99.27;97255.28;5053852;28;20314;-53
2022/08/06 09:09:29;;;;;;;4.53;4.13;;;;;;;18.17;100.00;97255.78;5054534;28;20235;-54
2022/08/06 09:11:57;;;;;;;16.05;5.28;;;;;;;18.18;100.00;97261.94;5054399;28;20242;-54
2022/08/06 09:14:25;;;;;;;54.42;8.73;;;;;;;18.24;100.00;97261.25;5054496;28;20274;-53
2022/08/06 09:16:52;;;;;;;36.20;6.45;;;;;;;18.28;100.00;97268.72;5040762;28;20303;-53
2022/08/06 09:19:19;;;;;;;6.22;4.53;;;;;;;18.32;97.91;97270.06;5053499;28;20207;-54
2022/08/06 09:21:47;;;;;;;13.88;4.78;;;;;;;18.24;99.02;97270.13;5054135;28;20238;-53
2022/08/06 09:24:14;;;;;;;12.93;4.15;;;;;;;18.29;98.88;97273.09;5054348;28;20290;-53
2022/08/06 09:27:06;;;;;;;20.55;4.95;;;;;;;18.24;97.41;97277.31;5054383;28;20294;-53
2022/08/06 09:29:33;;;;;;;15.85;4.80;;;;;;;18.20;99.65;97276.00;5054448;28;20629;-53
2022/08/06 09:32:00;;;;;;;5.00;3.58;;;;;;;18.32;99.41;97274.56;5054592;28;20293;-53
2022/08/06 09:34:38;;;;;;;4.88;3.22;;;;;;;18.25;98.96;97284.31;5054708;28;20211;-53
2022/08/06 09:37:05;;;;;;;6.60;3.53;;;;;;;18.19;99.37;97279.66;5044610;28;20238;-53
2022/08/06 09:39:34;;;;;;;7.15;3.53;;;;;;;18.30;100.00;97293.50;5058116;28;20202;-54
2022/08/06 09:42:01;;;;;;;4.20;3.30;;;;;;;18.34;99.52;97283.28;5057979;28;20207;-53
2022/08/06 09:44:29;;;;;;;3.63;3.30;;;;;;;18.40;99.50;97287.94;5057733;28;20234;-56
2022/08/06 09:46:57;;;;;;;4.03;3.25;;;;;;;18.33;99.24;97293.16;5057782;28;20246;-55
2022/08/06 09:49:24;;;;;;;3.20;3.00;;;;;;;18.33;100.00;97284.28;5057322;28;20253;-57
2022/08/06 09:51:51;;;;;;;5.25;3.17;;;;;;;18.19;98.72;97285.03;5057107;28;20234;-54
2022/08/06 09:54:18;;;;;;;3.45;2.90;;;;;;;18.30;99.33;97284.63;5057727;28;20290;-55
2022/08/06 09:56:46;;;;;;;3.38;3.08;;;;;;;18.35;98.50;97284.97;5063860;28;20195;-53
2022/08/06 09:59:13;;;;;;;2.90;2.60;;;;;;;18.49;96.91;97286.88;5067629;28;20509;-55
2022/08/06 10:01:46;;;;;;;3.78;2.67;;;;;;;18.45;97.19;97280.22;5058092;28;20603;-54
2022/08/06 10:04:14;;;;;;;2.65;2.50;;;;;;;18.42;95.27;97275.22;5057886;28;20280;-55
2022/08/06 10:06:52;;;;;;;2.90;2.70;;;;;;;18.58;94.96;97280.47;5057508;28;20223;-54
2022/08/06 10:09:18;;;;;;;3.08;2.88;;;;;;;18.65;93.27;97278.75;5057080;28;20740;-55
2022/08/06 10:11:45;;;;;;;2.75;2.65;;;;;;;18.74;92.90;97276.88;5057125;28;20298;-53
2022/08/06 10:14:22;;;;;;;2.95;2.75;;;;;;;18.86;93.08;97278.09;5057156;28;20303;-53
2022/08/06 10:17:09;;;;;;;3.55;3.20;;;;;;;18.91;91.34;97274.91;5043585;28;20238;-56
2022/08/06 10:19:36;;;;;;;2.75;2.55;;;;;;;18.94;89.51;97277.22;5056602;28;20242;-56
2022/08/06 10:22:06;;;;;;;2.80;2.60;;;;;;;19.03;91.25;97278.81;5056990;28;20246;-55
2022/08/06 10:24:37;;;;;;;3.67;3.15;;;;;;;18.92;91.04;97281.94;5074213;28;20187;-55
2022/08/06 10:27:06;;;;;;;2.92;2.72;;;;;;;19.06;91.89;97278.47;5067859;28;20235;-55
2022/08/06 10:29:34;;;;;;;3.53;3.22;;;;;;;19.02;90.64;97269.94;5057344;28;20288;-55
2022/08/06 10:32:02;;;;;;;2.88;2.67;;;;;;;19.13;91.31;97274.06;5045910;28;20699;-54
2022/08/06 10:34:31;;;;;;;3.63;3.38;;;;;;;19.18;90.20;97277.84;5054982;28;20635;-56
2022/08/06 10:37:02;;;;;;;2.92;2.72;;;;;;;19.26;90.77;97275.09;5057270;28;20294;-55
2022/08/06 10:39:32;;;;;;;2.95;2.75;;;;;;;19.16;89.47;97277.22;5059842;28;20210;-54
2022/08/06 10:42:00;;;;;;;3.13;2.72;;;;;;;19.12;88.40;97283.94;5059216;28;20299;-53
2022/08/06 10:44:27;;;;;;;3.10;2.88;;;;;;;19.20;89.05;97277.69;5055235;28;20277;-54
2022/08/06 10:46:53;;;;;;;3.17;2.80;;;;;;;19.21;89.77;97277.47;5056883;28;20235;-54
2022/08/06 10:49:21;;;;;;;3.03;2.72;;;;;;;19.27;88.92;97278.63;5057652;28;20227;-53
2022/08/06 10:51:50;;;;;;;3.40;2.95;;;;;;;19.18;88.41;97277.00;5058815;28;20261;-53
2022/08/06 10:54:17;;;;;;;3.00;2.80;;;;;;;19.22;89.02;97262.22;5060612;28;20528;-53
2022/08/06 10:56:46;;;;;;;2.90;2.78;;;;;;;19.23;89.67;97272.78;5056763;28;20231;-53
2022/08/06 10:59:14;;;;;;;3.10;2.90;;;;;;;19.26;89.74;97263.53;5056600;28;20667;-53
2022/08/06 11:01:46;;;;;;;3.10;2.70;;;;;;;19.29;89.73;97263.16;5057303;28;20249;-53
2022/08/06 11:04:19;;;;;;;2.90;2.70;;;;;;;19.33;89.62;97269.84;5057341;28;20231;-53
2022/08/06 11:07:01;;;;;;;2.80;2.60;;;;;;;19.31;89.15;97269.16;5057440;28;20238;-54
2022/08/06 11:10:00;;;;;;;2.88;2.67;;;;;;;19.38;88.93;97270.09;5058554;28;20246;-53
2022/08/06 11:12:44;;;;;;;2.97;2.78;;;;;;;19.44;87.63;97265.91;5060342;28;20290;-55
2022/08/06 11:15:11;;;;;;;3.30;3.00;;;;;;;19.43;88.47;97264.22;5065153;28;20187;-53
2022/08/06 11:17:45;;;;;;;3.05;2.85;;;;;;;19.50;87.54;97255.28;5078935;28;20191;-52
2022/08/06 11:20:39;;;;;;;3.50;3.28;;;;;;;19.36;88.46;97256.06;5079467;28;20179;-52
2022/08/06 11:23:25;;;;;;;3.25;2.95;;;;;;;19.32;87.76;97266.31;5079028;28;20194;-53
2022/08/06 11:25:53;;;;;;;3.15;2.95;;;;;;;19.31;87.93;97261.13;5079386;28;20174;-55
2022/08/06 11:28:21;;;;;;;3.05;2.85;;;;;;;19.36;88.17;97258.75;5077288;28;20214;-53
2022/08/06 11:30:50;;;;;;;3.83;3.20;;;;;;;19.25;87.95;97256.50;5072755;28;20208;-52
2022/08/06 11:33:19;;;;;;;3.30;3.00;;;;;;;19.31;89.34;97255.75;5079086;28;20183;-53
2022/08/06 11:35:48;;;;;;;3.35;3.15;;;;;;;19.25;88.10;97259.16;5078100;28;20199;-53
2022/08/06 11:38:37;;;;;;;3.30;3.10;;;;;;;19.24;88.69;97254.81;5078197;28;20203;-53